createdAt,value
2018-11-09T00:00:18.786Z,10.56
2018-11-09T00:01:18.517Z,10.48
2018-11-09T00:02:18.815Z,10.48
2018-11-09T00:03:18.528Z,10.42
2018-11-09T00:04:18.528Z,10.4
2018-11-09T00:05:18.796Z,10.44
2018-11-09T00:06:18.794Z,10.41
2018-11-09T00:07:18.543Z,10.33
2018-11-09T00:08:18.949Z,10.46
2018-11-09T00:09:18.793Z,10.41
2018-11-09T00:10:18.810Z,10.48
2018-11-09T00:11:18.552Z,10.35
2018-11-09T00:12:18.298Z,10.44
2018-11-09T00:13:18.294Z,10.49
2018-11-09T00:14:18.912Z,10.48
2018-11-09T00:15:18.552Z,10.44
2018-11-09T00:16:18.929Z,10.42
2018-11-09T00:17:18.817Z,10.46
2018-11-09T00:18:18.820Z,10.49
2018-11-09T00:19:18.307Z,10.49
2018-11-09T00:20:18.818Z,10.53
2018-11-09T00:21:18.817Z,10.54
2018-11-09T00:22:18.568Z,10.44
2018-11-09T00:23:18.617Z,10.54
2018-11-09T00:24:18.577Z,10.6
2018-11-09T00:25:18.833Z,10.53
2018-11-09T00:26:18.807Z,10.53
2018-11-09T00:27:18.576Z,10.56
2018-11-09T00:28:18.652Z,10.48
2018-11-09T00:29:18.576Z,10.56
2018-11-09T00:30:18.589Z,10.44
2018-11-09T00:31:18.581Z,10.54
2018-11-09T00:32:18.849Z,10.49
2018-11-09T00:33:18.879Z,10.48
2018-11-09T00:34:18.396Z,10.46
2018-11-09T00:35:18.846Z,10.48
2018-11-09T00:36:18.594Z,10.57
2018-11-09T00:37:18.848Z,10.56
2018-11-09T00:38:18.605Z,10.61
2018-11-09T00:39:18.853Z,10.59
2018-11-09T00:40:18.739Z,10.64
2018-11-09T00:41:18.861Z,10.59
2018-11-09T00:42:18.610Z,10.71
2018-11-09T00:43:18.658Z,10.6
2018-11-09T00:44:18.866Z,10.64
2018-11-09T00:45:18.866Z,10.74
2018-11-09T00:46:18.620Z,10.72
2018-11-09T00:47:19.151Z,10.71
2018-11-09T00:48:18.622Z,10.72
2018-11-09T00:49:18.879Z,10.72
2018-11-09T00:50:18.887Z,10.59
2018-11-09T00:51:18.884Z,10.64
2018-11-09T00:52:18.887Z,10.6
2018-11-09T00:53:18.735Z,10.69
2018-11-09T00:54:18.899Z,10.59
2018-11-09T00:55:18.897Z,10.61
2018-11-09T00:56:19.038Z,10.61
2018-11-09T00:57:18.911Z,10.69
2018-11-09T00:58:19.046Z,10.67
2018-11-09T00:59:18.912Z,10.68
2018-11-09T01:00:18.932Z,10.63
2018-11-09T01:01:18.652Z,10.61
2018-11-09T01:02:18.917Z,10.59
2018-11-09T01:03:19.190Z,10.63
2018-11-09T01:04:18.908Z,10.59
2018-11-09T01:05:18.866Z,10.61
2018-11-09T01:06:18.888Z,10.72
2018-11-09T01:07:18.679Z,10.67
2018-11-09T01:08:18.922Z,10.69
2018-11-09T01:09:19.729Z,10.64
2018-11-09T01:10:18.737Z,10.64
2018-11-09T01:11:18.926Z,10.71
2018-11-09T01:12:18.678Z,10.76
2018-11-09T01:13:18.931Z,10.81
2018-11-09T01:14:18.932Z,10.81
2018-11-09T01:15:18.937Z,10.76
2018-11-09T01:16:18.685Z,10.78
2018-11-09T01:17:18.944Z,10.79
2018-11-09T01:18:18.737Z,10.82
2018-11-09T01:19:18.953Z,10.82
2018-11-09T01:20:18.960Z,10.61
2018-11-09T01:21:18.701Z,10.67
2018-11-09T01:22:18.957Z,10.51
2018-11-09T01:23:18.964Z,10.49
2018-11-09T01:24:18.756Z,10.49
2018-11-09T01:25:18.970Z,10.53
2018-11-09T01:26:18.969Z,10.51
2018-11-09T01:27:18.992Z,10.53
2018-11-09T01:28:18.955Z,10.69
2018-11-09T01:29:18.971Z,10.61
2018-11-09T01:30:18.708Z,10.67
2018-11-09T01:31:18.967Z,10.59
2018-11-09T01:32:19.027Z,10.61
2018-11-09T01:33:19.018Z,10.61
2018-11-09T01:34:18.974Z,10.67
2018-11-09T01:35:18.969Z,10.61
2018-11-09T01:36:18.975Z,10.64
2018-11-09T01:37:18.753Z,10.68
2018-11-09T01:38:18.730Z,10.61
2018-11-09T01:39:18.986Z,10.57
2018-11-09T01:40:18.995Z,10.61
2018-11-09T01:41:18.772Z,10.74
2018-11-09T01:42:18.750Z,10.72
2018-11-09T01:43:19.009Z,10.74
2018-11-09T01:44:18.758Z,10.84
2018-11-09T01:45:19.010Z,10.79
2018-11-09T01:46:19.020Z,10.78
2018-11-09T01:47:19.011Z,10.81
2018-11-09T01:48:19.062Z,10.78
2018-11-09T01:49:19.117Z,10.74
2018-11-09T01:50:19.021Z,10.64
2018-11-09T01:51:18.767Z,10.51
2018-11-09T01:52:19.023Z,10.53
2018-11-09T01:53:18.777Z,10.48
2018-11-09T01:54:19.024Z,10.44
2018-11-09T01:55:19.031Z,10.56
2018-11-09T01:56:19.023Z,10.63
2018-11-09T01:57:19.033Z,10.59
2018-11-09T01:58:19.083Z,10.64
2018-11-09T01:59:19.044Z,10.79
2018-11-09T02:00:18.788Z,10.82
2018-11-09T02:01:19.050Z,10.81
2018-11-09T02:02:19.049Z,10.86
2018-11-09T02:03:18.795Z,10.87
2018-11-09T02:04:19.056Z,10.86
2018-11-09T02:05:19.056Z,10.92
2018-11-09T02:06:18.797Z,10.97
2018-11-09T02:07:19.059Z,10.97
2018-11-09T02:08:19.069Z,10.97
2018-11-09T02:09:18.810Z,10.93
2018-11-09T02:10:19.170Z,10.92
2018-11-09T02:11:19.063Z,10.89
2018-11-09T02:12:19.068Z,10.93
2018-11-09T02:13:19.116Z,10.84
2018-11-09T02:14:19.074Z,11.04
2018-11-09T02:15:19.082Z,10.93
2018-11-09T02:16:18.569Z,10.94
2018-11-09T02:17:19.076Z,10.89
2018-11-09T02:18:19.088Z,10.81
2018-11-09T02:19:19.082Z,10.82
2018-11-09T02:20:18.838Z,10.92
2018-11-09T02:21:19.086Z,10.78
2018-11-09T02:22:18.837Z,10.78
2018-11-09T02:23:18.889Z,10.78
2018-11-09T02:24:19.097Z,10.71
2018-11-09T02:25:19.099Z,10.61
2018-11-09T02:26:19.102Z,10.68
2018-11-09T02:27:18.852Z,10.51
2018-11-09T02:28:19.107Z,10.53
2018-11-09T02:29:19.119Z,10.53
2018-11-09T02:30:19.116Z,10.59
2018-11-09T02:31:18.868Z,10.75
2018-11-09T02:32:18.860Z,10.75
2018-11-09T02:33:18.868Z,10.78
2018-11-09T02:34:19.120Z,10.75
2018-11-09T02:35:19.122Z,10.72
2018-11-09T02:36:19.117Z,10.69
2018-11-09T02:37:19.178Z,10.82
2018-11-09T02:38:18.917Z,10.78
2018-11-09T02:39:18.869Z,10.82
2018-11-09T02:40:19.124Z,10.84
2018-11-09T02:41:19.128Z,10.87
2018-11-09T02:42:18.876Z,10.84
2018-11-09T02:43:18.883Z,10.87
2018-11-09T02:44:19.203Z,10.87
2018-11-09T02:45:19.134Z,10.84
2018-11-09T02:46:19.136Z,10.69
2018-11-09T02:47:19.271Z,10.69
2018-11-09T02:48:19.153Z,10.67
2018-11-09T02:49:19.155Z,10.59
2018-11-09T02:50:19.151Z,10.59
2018-11-09T02:51:19.165Z,10.64
2018-11-09T02:52:18.905Z,10.74
2018-11-09T02:53:19.013Z,10.71
2018-11-09T02:54:19.168Z,10.6
2018-11-09T02:55:18.924Z,10.54
2018-11-09T02:56:19.174Z,10.56
2018-11-09T02:57:19.177Z,10.59
2018-11-09T02:58:18.923Z,10.54
2018-11-09T02:59:19.180Z,10.42
2018-11-09T03:00:19.192Z,10.53
2018-11-09T03:01:18.947Z,10.46
2018-11-09T03:02:18.678Z,10.51
2018-11-09T03:03:19.242Z,10.56
2018-11-09T03:04:19.269Z,10.46
2018-11-09T03:05:18.934Z,10.42
2018-11-09T03:06:19.198Z,10.35
2018-11-09T03:07:18.948Z,10.31
2018-11-09T03:08:18.996Z,10.38
2018-11-09T03:09:19.195Z,10.28
2018-11-09T03:10:18.950Z,10.23
2018-11-09T03:11:19.202Z,10.15
2018-11-09T03:12:18.952Z,10.26
2018-11-09T03:13:19.258Z,10.31
2018-11-09T03:14:19.204Z,10.26
2018-11-09T03:15:19.215Z,10.34
2018-11-09T03:16:19.221Z,10.34
2018-11-09T03:17:19.215Z,10.51
2018-11-09T03:18:18.973Z,10.44
2018-11-09T03:19:19.225Z,10.56
2018-11-09T03:20:19.225Z,10.51
2018-11-09T03:21:19.221Z,10.48
2018-11-09T03:22:18.972Z,10.53
2018-11-09T03:23:19.291Z,10.41
2018-11-09T03:24:19.226Z,10.4
2018-11-09T03:25:19.237Z,10.44
2018-11-09T03:26:19.228Z,10.48
2018-11-09T03:27:19.235Z,10.51
2018-11-09T03:28:19.244Z,10.49
2018-11-09T03:29:18.987Z,10.51
2018-11-09T03:30:19.233Z,10.46
2018-11-09T03:31:18.994Z,10.41
2018-11-09T03:32:19.254Z,10.51
2018-11-09T03:33:19.002Z,10.48
2018-11-09T03:34:18.995Z,10.4
2018-11-09T03:35:19.257Z,10.33
2018-11-09T03:36:19.261Z,10.23
2018-11-09T03:37:19.259Z,10.23
2018-11-09T03:38:19.362Z,10.26
2018-11-09T03:39:19.265Z,10.34
2018-11-09T03:40:19.261Z,10.33
2018-11-09T03:41:19.015Z,10.31
2018-11-09T03:42:19.274Z,10.33
2018-11-09T03:43:19.368Z,10.35
2018-11-09T03:44:19.272Z,10.33
2018-11-09T03:45:19.280Z,10.38
2018-11-09T03:46:19.270Z,10.33
2018-11-09T03:47:19.277Z,10.28
2018-11-09T03:48:19.380Z,10.23
2018-11-09T03:49:19.279Z,10.05
2018-11-09T03:50:19.044Z,10.04
2018-11-09T03:51:19.030Z,10.09
2018-11-09T03:52:19.290Z,10.13
2018-11-09T03:53:19.289Z,10.12
2018-11-09T03:54:19.285Z,10.02
2018-11-09T03:55:18.787Z,9.99
2018-11-09T03:56:19.038Z,9.94
2018-11-09T03:57:19.294Z,9.99
2018-11-09T03:58:19.350Z,9.91
2018-11-09T03:59:19.305Z,9.94
2018-11-09T04:00:19.302Z,9.91
2018-11-09T04:01:19.052Z,9.91
2018-11-09T04:02:19.049Z,9.97
2018-11-09T04:03:19.055Z,9.92
2018-11-09T04:04:19.309Z,9.87
2018-11-09T04:05:19.068Z,9.87
2018-11-09T04:06:19.309Z,9.95
2018-11-09T04:07:19.354Z,9.91
2018-11-09T04:08:19.322Z,9.82
2018-11-09T04:09:19.058Z,9.69
2018-11-09T04:10:19.347Z,9.64
2018-11-09T04:11:19.331Z,9.56
2018-11-09T04:12:19.327Z,9.61
2018-11-09T04:13:19.123Z,9.74
2018-11-09T04:14:19.332Z,9.64
2018-11-09T04:15:19.336Z,9.77
2018-11-09T04:16:19.349Z,9.8
2018-11-09T04:17:19.327Z,9.89
2018-11-09T04:18:19.336Z,9.89
2018-11-09T04:19:19.084Z,9.89
2018-11-09T04:20:19.332Z,9.89
2018-11-09T04:21:19.084Z,9.91
2018-11-09T04:22:19.340Z,9.99
2018-11-09T04:23:19.333Z,9.95
2018-11-09T04:24:19.341Z,9.99
2018-11-09T04:25:19.092Z,9.95
2018-11-09T04:26:19.345Z,10.01
2018-11-09T04:27:19.097Z,10.09
2018-11-09T04:28:19.139Z,10.07
2018-11-09T04:29:19.592Z,10.09
2018-11-09T04:30:19.346Z,10.17
2018-11-09T04:31:19.350Z,10.15
2018-11-09T04:32:19.097Z,10.25
2018-11-09T04:33:19.362Z,10.25
2018-11-09T04:34:19.435Z,10.3
2018-11-09T04:35:19.356Z,10.15
2018-11-09T04:36:19.362Z,10.13
2018-11-09T04:37:19.372Z,10.15
2018-11-09T04:38:19.361Z,10.09
2018-11-09T04:39:19.108Z,10.1
2018-11-09T04:40:18.857Z,10.05
2018-11-09T04:41:19.366Z,10.01
2018-11-09T04:42:19.155Z,10.09
2018-11-09T04:43:19.419Z,10.15
2018-11-09T04:44:19.372Z,10.17
2018-11-09T04:45:19.366Z,10.19
2018-11-09T04:46:19.376Z,10.33
2018-11-09T04:47:19.132Z,10.3
2018-11-09T04:48:19.388Z,10.3
2018-11-09T04:49:19.136Z,10.28
2018-11-09T04:50:19.387Z,10.28
2018-11-09T04:51:19.390Z,10.2
2018-11-09T04:52:19.393Z,10.3
2018-11-09T04:53:19.400Z,10.19
2018-11-09T04:54:19.398Z,10.23
2018-11-09T04:55:19.400Z,10.3
2018-11-09T04:56:19.152Z,10.28
2018-11-09T04:57:19.405Z,10.4
2018-11-09T04:58:19.463Z,10.37
2018-11-09T04:59:19.404Z,10.38
2018-11-09T05:00:19.402Z,10.37
2018-11-09T05:01:19.408Z,10.37
2018-11-09T05:02:19.445Z,10.48
2018-11-09T05:03:19.162Z,10.46
2018-11-09T05:04:19.159Z,10.4
2018-11-09T05:05:19.421Z,10.44
2018-11-09T05:06:19.420Z,10.33
2018-11-09T05:07:19.168Z,10.35
2018-11-09T05:08:19.485Z,10.35
2018-11-09T05:09:19.422Z,10.26
2018-11-09T05:10:19.437Z,10.35
2018-11-09T05:11:19.427Z,10.4
2018-11-09T05:12:19.443Z,10.46
2018-11-09T05:13:19.178Z,10.49
2018-11-09T05:14:19.429Z,10.41
2018-11-09T05:15:19.185Z,10.4
2018-11-09T05:16:19.437Z,10.35
2018-11-09T05:17:19.423Z,10.34
2018-11-09T05:18:19.200Z,10.42
2018-11-09T05:19:19.443Z,10.4
2018-11-09T05:20:19.562Z,10.42
2018-11-09T05:21:19.462Z,10.48
2018-11-09T05:22:19.196Z,10.53
2018-11-09T05:23:19.499Z,10.51
2018-11-09T05:24:19.451Z,10.6
2018-11-09T05:25:19.450Z,10.6
2018-11-09T05:26:19.458Z,10.69
2018-11-09T05:27:19.453Z,10.68
2018-11-09T05:28:19.256Z,10.59
2018-11-09T05:29:19.408Z,10.63
2018-11-09T05:30:18.959Z,10.76
2018-11-09T05:31:18.961Z,10.78
2018-11-09T05:32:19.480Z,10.75
2018-11-09T05:33:19.468Z,10.81
2018-11-09T05:34:19.475Z,10.75
2018-11-09T05:35:19.478Z,10.81
2018-11-09T05:36:19.475Z,10.64
2018-11-09T05:37:19.482Z,10.67
2018-11-09T05:38:19.482Z,10.63
2018-11-09T05:39:19.480Z,10.61
2018-11-09T05:40:19.485Z,10.6
2018-11-09T05:41:19.505Z,10.64
2018-11-09T05:42:19.500Z,10.75
2018-11-09T05:43:19.545Z,10.6
2018-11-09T05:44:19.489Z,10.54
2018-11-09T05:45:19.490Z,10.4
2018-11-09T05:46:19.500Z,10.3
2018-11-09T05:47:19.487Z,10.28
2018-11-09T05:48:19.500Z,10.3
2018-11-09T05:49:19.499Z,10.34
2018-11-09T05:50:19.510Z,10.26
2018-11-09T05:51:19.511Z,10.28
2018-11-09T05:52:19.522Z,10.22
2018-11-09T05:53:19.565Z,10.23
2018-11-09T05:54:19.518Z,10.2
2018-11-09T05:55:19.516Z,10.28
2018-11-09T05:56:19.515Z,10.33
2018-11-09T05:57:19.517Z,10.22
2018-11-09T05:58:19.525Z,10.19
2018-11-09T05:59:19.521Z,10.3
2018-11-09T06:00:19.520Z,10.17
2018-11-09T06:01:19.323Z,10.19
2018-11-09T06:02:19.526Z,10.15
2018-11-09T06:03:19.440Z,10.19
2018-11-09T06:04:19.543Z,10.22
2018-11-09T06:05:19.540Z,10.28
2018-11-09T06:06:19.550Z,10.25
2018-11-09T06:07:19.546Z,10.25
2018-11-09T06:08:19.607Z,10.3
2018-11-09T06:09:19.540Z,10.28
2018-11-09T06:10:19.543Z,10.33
2018-11-09T06:11:19.550Z,10.25
2018-11-09T06:12:19.295Z,10.31
2018-11-09T06:13:19.545Z,10.26
2018-11-09T06:14:19.551Z,10.26
2018-11-09T06:15:19.549Z,10.23
2018-11-09T06:16:19.607Z,10.22
2018-11-09T06:17:19.302Z,10.26
2018-11-09T06:18:19.307Z,10.23
2018-11-09T06:19:19.561Z,10.31
2018-11-09T06:20:19.562Z,10.41
2018-11-09T06:21:19.583Z,10.4
2018-11-09T06:22:19.566Z,10.34
2018-11-09T06:23:19.622Z,10.28
2018-11-09T06:24:19.315Z,10.3
2018-11-09T06:25:19.596Z,10.25
2018-11-09T06:26:19.067Z,10.25
2018-11-09T06:27:19.574Z,10.3
2018-11-09T06:28:19.576Z,10.26
2018-11-09T06:29:19.574Z,10.23
2018-11-09T06:30:19.584Z,10.28
2018-11-09T06:31:19.582Z,10.33
2018-11-09T06:32:19.325Z,10.31
2018-11-09T06:33:19.595Z,10.34
2018-11-09T06:34:19.583Z,10.44
2018-11-09T06:35:19.334Z,10.51
2018-11-09T06:36:19.598Z,10.51
2018-11-09T06:37:19.591Z,10.48
2018-11-09T06:38:19.652Z,10.53
2018-11-09T06:39:19.597Z,10.59
2018-11-09T06:40:19.355Z,10.56
2018-11-09T06:41:19.625Z,10.64
2018-11-09T06:42:19.602Z,10.63
2018-11-09T06:43:19.668Z,10.74
2018-11-09T06:44:19.366Z,10.69
2018-11-09T06:45:20.153Z,10.81
2018-11-09T06:46:19.617Z,10.76
2018-11-09T06:47:19.616Z,10.79
2018-11-09T06:48:19.623Z,10.75
2018-11-09T06:49:19.112Z,10.82
2018-11-09T06:50:19.616Z,10.79
2018-11-09T06:51:19.772Z,10.61
2018-11-09T06:52:19.374Z,10.67
2018-11-09T06:53:19.625Z,10.69
2018-11-09T06:54:19.621Z,10.72
2018-11-09T06:55:19.629Z,10.69
2018-11-09T06:56:19.643Z,10.63
2018-11-09T06:57:19.603Z,10.57
2018-11-09T06:58:20.531Z,10.63
2018-11-09T06:59:19.635Z,10.6
2018-11-09T07:00:19.643Z,10.67
2018-11-09T07:01:19.388Z,10.64
2018-11-09T07:02:19.647Z,10.64
2018-11-09T07:03:19.652Z,10.53
2018-11-09T07:04:19.734Z,10.49
2018-11-09T07:05:19.396Z,10.44
2018-11-09T07:06:19.652Z,10.49
2018-11-09T07:07:19.664Z,10.53
2018-11-09T07:08:19.403Z,10.4
2018-11-09T07:09:19.665Z,10.33
2018-11-09T07:10:19.649Z,10.3
2018-11-09T07:11:19.644Z,10.33
2018-11-09T07:12:19.987Z,10.37
2018-11-09T07:13:19.452Z,10.48
2018-11-09T07:14:19.672Z,10.41
2018-11-09T07:15:19.534Z,10.37
2018-11-09T07:16:19.425Z,10.34
2018-11-09T07:17:19.422Z,10.48
2018-11-09T07:18:19.711Z,10.54
2018-11-09T07:19:19.680Z,10.51
2018-11-09T07:20:19.678Z,10.59
2018-11-09T07:21:19.682Z,10.6
2018-11-09T07:22:19.689Z,10.75
2018-11-09T07:23:19.681Z,10.78
2018-11-09T07:24:19.433Z,10.81
2018-11-09T07:25:19.939Z,10.89
2018-11-09T07:26:19.681Z,10.84
2018-11-09T07:27:19.684Z,10.92
2018-11-09T07:28:19.494Z,10.96
2018-11-09T07:29:19.707Z,10.82
2018-11-09T07:30:19.709Z,10.97
2018-11-09T07:31:20.114Z,10.9
2018-11-09T07:32:19.707Z,10.76
2018-11-09T07:33:19.706Z,10.79
2018-11-09T07:34:19.454Z,10.64
2018-11-09T07:35:19.720Z,10.64
2018-11-09T07:36:19.591Z,10.68
2018-11-09T07:37:20.209Z,10.72
2018-11-09T07:38:19.718Z,10.69
2018-11-09T07:39:19.472Z,10.61
2018-11-09T07:40:19.472Z,10.64
2018-11-09T07:41:19.722Z,10.64
2018-11-09T07:42:19.726Z,10.78
2018-11-09T07:43:19.533Z,10.82
2018-11-09T07:44:19.477Z,10.84
2018-11-09T07:45:19.931Z,10.9
2018-11-09T07:46:19.501Z,10.93
2018-11-09T07:47:19.747Z,10.94
2018-11-09T07:48:19.493Z,10.89
2018-11-09T07:49:19.740Z,10.84
2018-11-09T07:50:19.489Z,10.81
2018-11-09T07:51:20.067Z,10.81
2018-11-09T07:52:19.995Z,10.78
2018-11-09T07:53:19.753Z,10.82
2018-11-09T07:54:19.747Z,10.81
2018-11-09T07:55:19.765Z,10.86
2018-11-09T07:56:19.912Z,10.82
2018-11-09T07:57:19.852Z,10.78
2018-11-09T07:58:19.911Z,10.81
2018-11-09T07:59:19.761Z,10.76
2018-11-09T08:00:19.746Z,10.81
2018-11-09T08:01:19.748Z,10.79
2018-11-09T08:02:19.514Z,10.89
2018-11-09T08:03:19.774Z,10.93
2018-11-09T08:04:19.523Z,10.87
2018-11-09T08:05:19.790Z,10.82
2018-11-09T08:06:19.783Z,10.9
2018-11-09T08:07:19.921Z,10.87
2018-11-09T08:08:19.535Z,10.87
2018-11-09T08:09:19.967Z,10.87
2018-11-09T08:10:19.536Z,10.9
2018-11-09T08:11:19.529Z,11.02
2018-11-09T08:12:19.539Z,10.99
2018-11-09T08:13:19.596Z,11.04
2018-11-09T08:14:19.543Z,11.15
2018-11-09T08:15:19.544Z,11.02
2018-11-09T08:16:19.302Z,11.07
2018-11-09T08:17:19.548Z,11.07
2018-11-09T08:18:19.552Z,11.15
2018-11-09T08:19:19.669Z,11.29
2018-11-09T08:20:19.305Z,11.41
2018-11-09T08:21:19.562Z,11.32
2018-11-09T08:22:19.816Z,11.35
2018-11-09T08:23:19.311Z,11.29
2018-11-09T08:24:19.809Z,11.36
2018-11-09T08:25:19.961Z,11.3
2018-11-09T08:26:20.104Z,11.25
2018-11-09T08:27:19.824Z,11.32
2018-11-09T08:28:19.618Z,11.27
2018-11-09T08:29:19.321Z,11.29
2018-11-09T08:30:19.820Z,11.27
2018-11-09T08:31:19.837Z,11.35
2018-11-09T08:32:19.575Z,11.37
2018-11-09T08:33:19.884Z,11.48
2018-11-09T08:34:19.887Z,11.5
2018-11-09T08:35:19.881Z,11.54
2018-11-09T08:36:19.858Z,11.45
2018-11-09T08:37:19.345Z,11.41
2018-11-09T08:38:19.597Z,11.41
2018-11-09T08:39:19.601Z,11.43
2018-11-09T08:40:19.865Z,11.33
2018-11-09T08:41:19.861Z,11.48
2018-11-09T08:42:19.862Z,11.52
2018-11-09T08:43:19.875Z,11.44
2018-11-09T08:44:20.329Z,11.41
2018-11-09T08:45:19.901Z,11.36
2018-11-09T08:46:19.888Z,11.44
2018-11-09T08:47:19.625Z,11.41
2018-11-09T08:48:19.927Z,11.36
2018-11-09T08:49:19.887Z,11.4
2018-11-09T08:50:19.816Z,11.44
2018-11-09T08:51:19.889Z,11.48
2018-11-09T08:52:19.637Z,11.32
2018-11-09T08:53:19.897Z,11.44
2018-11-09T08:54:19.905Z,11.48
2018-11-09T08:55:20.563Z,11.44
2018-11-09T08:56:19.652Z,11.37
2018-11-09T08:57:19.920Z,11.41
2018-11-09T08:58:19.652Z,11.33
2018-11-09T08:59:19.906Z,11.3
2018-11-09T09:00:19.905Z,11.36
2018-11-09T09:01:19.653Z,11.41
2018-11-09T09:02:19.405Z,11.45
2018-11-09T09:03:19.826Z,11.52
2018-11-09T09:04:19.914Z,11.51
2018-11-09T09:05:19.921Z,11.54
2018-11-09T09:06:19.919Z,11.41
2018-11-09T09:07:19.672Z,11.47
2018-11-09T09:08:19.931Z,11.47
2018-11-09T09:09:19.935Z,11.52
2018-11-09T09:10:19.686Z,11.59
2018-11-09T09:11:19.691Z,11.62
2018-11-09T09:12:19.941Z,11.62
2018-11-09T09:13:19.736Z,11.63
2018-11-09T09:14:19.683Z,11.63
2018-11-09T09:15:19.687Z,11.52
2018-11-09T09:16:19.946Z,11.59
2018-11-09T09:17:19.945Z,11.68
2018-11-09T09:18:19.954Z,11.73
2018-11-09T09:19:19.949Z,11.69
2018-11-09T09:20:19.845Z,11.7
2018-11-09T09:21:19.968Z,11.77
2018-11-09T09:22:19.713Z,11.7
2018-11-09T09:23:19.984Z,11.8
2018-11-09T09:24:19.976Z,11.83
2018-11-09T09:25:19.985Z,11.94
2018-11-09T09:26:19.734Z,12
2018-11-09T09:27:19.479Z,12.04
2018-11-09T09:28:20.064Z,12.09
2018-11-09T09:29:19.911Z,12.12
2018-11-09T09:30:19.995Z,12.09
2018-11-09T09:31:19.741Z,12
2018-11-09T09:32:20.006Z,11.99
2018-11-09T09:33:20.031Z,11.99
2018-11-09T09:34:19.749Z,12.02
2018-11-09T09:35:20.096Z,12.03
2018-11-09T09:36:19.978Z,12
2018-11-09T09:37:19.746Z,11.99
2018-11-09T09:38:20.002Z,12.17
2018-11-09T09:39:19.759Z,12.1
2018-11-09T09:40:20.015Z,12
2018-11-09T09:41:20.060Z,11.99
2018-11-09T09:42:19.788Z,11.97
2018-11-09T09:43:19.829Z,12.02
2018-11-09T09:44:19.785Z,11.73
2018-11-09T09:45:20.039Z,11.77
2018-11-09T09:46:20.585Z,11.9
2018-11-09T09:47:19.793Z,11.91
2018-11-09T09:48:20.070Z,11.91
2018-11-09T09:49:19.541Z,11.97
2018-11-09T09:50:20.047Z,12.18
2018-11-09T09:51:19.807Z,12.22
2018-11-09T09:52:20.071Z,12.35
2018-11-09T09:53:20.060Z,12.47
2018-11-09T09:54:20.067Z,12.53
2018-11-09T09:55:20.184Z,12.43
2018-11-09T09:56:22.258Z,12.6
2018-11-09T09:57:22.317Z,12.68
2018-11-09T09:58:20.342Z,12.67
2018-11-09T09:59:20.083Z,12.73
2018-11-09T10:00:20.084Z,12.82
2018-11-09T10:01:19.647Z,12.78
2018-11-09T10:02:20.112Z,12.87
2018-11-09T10:03:19.847Z,12.82
2018-11-09T10:04:20.109Z,12.91
2018-11-09T10:05:19.851Z,12.8
2018-11-09T10:06:20.112Z,12.8
2018-11-09T10:07:20.104Z,12.75
2018-11-09T10:08:20.177Z,12.73
2018-11-09T10:09:19.868Z,12.76
2018-11-09T10:10:19.871Z,12.76
2018-11-09T10:11:19.872Z,12.73
2018-11-09T10:12:19.878Z,12.78
2018-11-09T10:13:20.495Z,12.68
2018-11-09T10:14:20.195Z,12.61
2018-11-09T10:15:20.158Z,12.61
2018-11-09T10:16:20.261Z,12.6
2018-11-09T10:17:19.922Z,12.45
2018-11-09T10:18:20.154Z,12.47
2018-11-09T10:19:20.431Z,12.43
2018-11-09T10:20:19.912Z,12.32
2018-11-09T10:21:19.917Z,12.2
2018-11-09T10:22:20.171Z,12.18
2018-11-09T10:23:20.167Z,12.22
2018-11-09T10:24:20.172Z,12.35
2018-11-09T10:25:20.198Z,12.61
2018-11-09T10:26:20.194Z,12.57
2018-11-09T10:27:20.174Z,12.7
2018-11-09T10:28:19.985Z,12.61
2018-11-09T10:29:20.182Z,12.61
2018-11-09T10:30:20.205Z,12.54
2018-11-09T10:31:19.936Z,12.37
2018-11-09T10:32:20.195Z,12.42
2018-11-09T10:33:20.524Z,12.43
2018-11-09T10:34:20.197Z,12.5
2018-11-09T10:35:20.201Z,12.55
2018-11-09T10:36:19.947Z,12.57
2018-11-09T10:37:20.215Z,12.53
2018-11-09T10:38:20.001Z,12.47
2018-11-09T10:39:20.229Z,12.49
2018-11-09T10:40:19.970Z,12.6
2018-11-09T10:41:20.228Z,12.57
2018-11-09T10:42:20.365Z,12.68
2018-11-09T10:43:20.290Z,12.62
2018-11-09T10:44:20.239Z,12.67
2018-11-09T10:45:20.277Z,12.79
2018-11-09T10:46:20.244Z,12.78
2018-11-09T10:47:20.250Z,12.79
2018-11-09T10:48:20.108Z,12.82
2018-11-09T10:49:20.256Z,12.93
2018-11-09T10:50:20.260Z,12.97
2018-11-09T10:51:20.262Z,13.01
2018-11-09T10:52:20.266Z,13.12
2018-11-09T10:53:20.272Z,13.15
2018-11-09T10:54:20.316Z,13.19
2018-11-09T10:55:20.247Z,13.19
2018-11-09T10:56:21.068Z,13.16
2018-11-09T10:57:20.216Z,13.31
2018-11-09T10:58:20.036Z,13.3
2018-11-09T10:59:20.295Z,13.41
2018-11-09T11:00:20.071Z,13.31
2018-11-09T11:01:20.049Z,13.35
2018-11-09T11:02:20.307Z,13.42
2018-11-09T11:03:20.351Z,13.41
2018-11-09T11:04:20.532Z,13.37
2018-11-09T11:05:20.320Z,13.44
2018-11-09T11:06:20.311Z,13.49
2018-11-09T11:07:20.677Z,13.47
2018-11-09T11:08:21.321Z,13.5
2018-11-09T11:09:20.077Z,13.56
2018-11-09T11:10:20.083Z,13.6
2018-11-09T11:11:20.339Z,13.56
2018-11-09T11:12:20.288Z,13.62
2018-11-09T11:13:20.152Z,13.68
2018-11-09T11:14:20.354Z,13.67
2018-11-09T11:15:20.360Z,13.71
2018-11-09T11:16:20.352Z,13.72
2018-11-09T11:17:20.369Z,13.87
2018-11-09T11:18:20.627Z,13.81
2018-11-09T11:19:20.117Z,13.83
2018-11-09T11:20:20.121Z,13.79
2018-11-09T11:21:20.119Z,13.77
2018-11-09T11:22:20.380Z,13.87
2018-11-09T11:23:19.929Z,13.86
2018-11-09T11:24:20.385Z,13.93
2018-11-09T11:25:20.399Z,13.87
2018-11-09T11:26:20.150Z,13.92
2018-11-09T11:27:20.580Z,13.9
2018-11-09T11:28:20.210Z,13.81
2018-11-09T11:29:20.406Z,13.9
2018-11-09T11:30:20.415Z,13.81
2018-11-09T11:31:20.152Z,13.85
2018-11-09T11:32:20.168Z,13.74
2018-11-09T11:33:20.700Z,13.81
2018-11-09T11:34:20.178Z,13.85
2018-11-09T11:35:20.445Z,14.04
2018-11-09T11:36:19.931Z,14
2018-11-09T11:37:20.449Z,13.85
2018-11-09T11:38:20.509Z,13.92
2018-11-09T11:39:19.948Z,13.9
2018-11-09T11:40:20.615Z,13.79
2018-11-09T11:41:20.205Z,13.85
2018-11-09T11:42:20.212Z,13.87
2018-11-09T11:43:20.626Z,13.87
2018-11-09T11:44:20.235Z,13.99
2018-11-09T11:45:20.479Z,13.89
2018-11-09T11:46:20.226Z,13.81
2018-11-09T11:47:20.487Z,13.87
2018-11-09T11:48:20.053Z,13.9
2018-11-09T11:49:20.499Z,13.83
2018-11-09T11:50:20.248Z,13.85
2018-11-09T11:51:20.253Z,13.83
2018-11-09T11:52:20.504Z,13.86
2018-11-09T11:53:20.266Z,13.87
2018-11-09T11:54:20.507Z,13.85
2018-11-09T11:55:21.026Z,13.89
2018-11-09T11:56:20.265Z,13.86
2018-11-09T11:57:20.274Z,13.83
2018-11-09T11:58:20.583Z,13.9
2018-11-09T11:59:20.530Z,13.79
2018-11-09T12:00:20.540Z,13.83
2018-11-09T12:01:20.063Z,13.95
2018-11-09T12:02:20.839Z,13.9
2018-11-09T12:03:20.309Z,13.97
2018-11-09T12:04:20.553Z,13.97
2018-11-09T12:05:20.563Z,13.99
2018-11-09T12:06:20.575Z,13.99
2018-11-09T12:07:20.317Z,14.07
2018-11-09T12:08:20.586Z,14.08
2018-11-09T12:09:20.581Z,14.14
2018-11-09T12:10:20.609Z,14.3
2018-11-09T12:11:20.721Z,14.32
2018-11-09T12:12:22.123Z,14.32
2018-11-09T12:13:20.876Z,14.33
2018-11-09T12:14:20.357Z,14.33
2018-11-09T12:15:20.360Z,14.26
2018-11-09T12:16:20.360Z,14.29
2018-11-09T12:17:20.615Z,14.28
2018-11-09T12:18:20.113Z,14.22
2018-11-09T12:19:20.655Z,14.28
2018-11-09T12:20:20.126Z,14.33
2018-11-09T12:21:20.639Z,14.22
2018-11-09T12:22:20.633Z,14.25
2018-11-09T12:23:20.387Z,14.28
2018-11-09T12:24:20.646Z,14.18
2018-11-09T12:25:20.653Z,14.3
2018-11-09T12:26:20.659Z,14.36
2018-11-09T12:27:20.423Z,14.36
2018-11-09T12:28:20.203Z,14.43
2018-11-09T12:29:20.688Z,14.3
2018-11-09T12:30:20.162Z,14.36
2018-11-09T12:31:20.670Z,14.35
2018-11-09T12:32:20.433Z,14.43
2018-11-09T12:33:20.435Z,14.37
2018-11-09T12:34:20.678Z,14.43
2018-11-09T12:35:20.444Z,14.35
2018-11-09T12:36:20.704Z,14.25
2018-11-09T12:37:21.513Z,14.26
2018-11-09T12:38:22.647Z,14.15
2018-11-09T12:39:20.713Z,14.18
2018-11-09T12:40:20.467Z,14.17
2018-11-09T12:41:20.476Z,14.1
2018-11-09T12:42:20.482Z,14.04
2018-11-09T12:43:20.584Z,14.07
2018-11-09T12:44:20.736Z,14.11
2018-11-09T12:45:20.510Z,14
2018-11-09T12:46:20.751Z,14.03
2018-11-09T12:47:20.243Z,14.03
2018-11-09T12:48:21.125Z,14.1
2018-11-09T12:49:20.761Z,14.08
2018-11-09T12:50:20.515Z,14.08
2018-11-09T12:51:20.521Z,14.17
2018-11-09T12:52:20.775Z,14.2
2018-11-09T12:53:20.782Z,14.33
2018-11-09T12:54:20.540Z,14.32
2018-11-09T12:55:20.795Z,14.36
2018-11-09T12:56:20.800Z,14.37